createdAt,value
2023-03-30T00:01:15.064Z,97277.97
2023-03-30T00:03:47.587Z,97281.03
2023-03-30T00:06:22.589Z,97281.66
2023-03-30T00:08:57.080Z,97282.28
2023-03-30T00:11:26.731Z,97266.31
2023-03-30T00:13:54.638Z,97268.19
2023-03-30T00:16:22.676Z,97267.34
2023-03-30T00:18:50.747Z,97257.44
2023-03-30T00:21:20.424Z,97260.13
2023-03-30T00:23:49.108Z,97257.63
2023-03-30T00:26:17.424Z,97252.25
2023-03-30T00:28:46.197Z,97249.34
2023-03-30T00:31:13.792Z,97242.69
2023-03-30T00:33:46.398Z,97238.13
2023-03-30T00:36:16.349Z,97237.69
2023-03-30T00:38:45.441Z,97241.63
2023-03-30T00:41:12.974Z,97234.59
2023-03-30T00:44:50.907Z,97230.91
2023-03-30T00:47:19.105Z,97229.50
2023-03-30T00:49:46.987Z,97227.28
2023-03-30T00:52:19.280Z,97211.94
2023-03-30T00:54:47.428Z,97214.03
2023-03-30T00:57:15.187Z,97206.63
2023-03-30T00:59:42.853Z,97200.81
2023-03-30T01:02:10.544Z,97208.03
2023-03-30T01:04:38.899Z,97210.53
2023-03-30T01:07:07.560Z,97211.13
2023-03-30T01:09:35.608Z,97209.50
2023-03-30T01:12:03.297Z,97212.00
2023-03-30T01:14:31.256Z,97207.44
2023-03-30T01:17:37.025Z,97217.78
2023-03-30T01:20:28.337Z,97223.59
2023-03-30T01:23:05.014Z,97230.59
2023-03-30T01:25:56.580Z,97216.31
2023-03-30T01:28:50.267Z,97222.25
2023-03-30T01:32:01.158Z,97210.13
2023-03-30T01:35:21.843Z,97204.06
2023-03-30T01:38:26.355Z,97200.09
2023-03-30T01:41:31.729Z,97191.22
2023-03-30T01:44:21.802Z,97204.28
2023-03-30T01:46:58.092Z,97208.31
2023-03-30T01:49:37.907Z,97212.16
2023-03-30T01:52:41.109Z,97212.22
2023-03-30T01:55:37.978Z,97199.97
2023-03-30T01:58:28.902Z,97206.78
2023-03-30T02:00:59.576Z,97203.47
2023-03-30T02:03:38.895Z,97208.59
2023-03-30T02:06:18.191Z,97218.34
2023-03-30T02:08:49.616Z,97214.38
2023-03-30T02:11:18.136Z,97215.00
2023-03-30T02:13:47.456Z,97225.72
2023-03-30T02:16:26.704Z,97222.25
2023-03-30T02:18:54.888Z,97235.50
2023-03-30T02:21:22.401Z,97231.78
2023-03-30T02:23:54.133Z,97228.03
2023-03-30T02:26:22.858Z,97230.53
2023-03-30T02:28:52.113Z,97238.41
2023-03-30T02:31:19.798Z,97234.31
2023-03-30T02:34:04.342Z,97236.31
2023-03-30T02:37:00.282Z,97235.50
2023-03-30T02:39:47.752Z,97228.63
2023-03-30T02:43:00.011Z,97221.22
2023-03-30T02:46:06.984Z,97223.03
2023-03-30T02:49:17.702Z,97224.59
2023-03-30T02:52:21.325Z,97211.34
2023-03-30T02:54:58.931Z,97195.63
2023-03-30T02:58:07.392Z,97171.88
2023-03-30T03:01:16.078Z,97162.97
2023-03-30T03:03:58.253Z,97147.66
2023-03-30T03:06:28.389Z,97170.25
2023-03-30T03:08:57.135Z,97172.13
2023-03-30T03:11:30.241Z,97182.69
2023-03-30T03:13:58.051Z,97172.00
2023-03-30T03:16:26.646Z,97164.78
2023-03-30T03:19:12.096Z,97157.31
2023-03-30T03:21:40.920Z,97163.53
2023-03-30T03:24:08.968Z,97163.97
2023-03-30T03:27:08.928Z,97159.63
2023-03-30T03:29:53.290Z,97156.31
2023-03-30T03:32:20.872Z,97150.34
2023-03-30T03:34:50.066Z,97141.06
2023-03-30T03:37:18.603Z,97142.13
2023-03-30T03:39:46.817Z,97132.19
2023-03-30T03:42:16.090Z,97126.81
2023-03-30T03:44:52.817Z,97134.25
2023-03-30T03:47:22.997Z,97149.16
2023-03-30T03:49:50.645Z,97136.75
2023-03-30T03:52:18.122Z,97144.41
2023-03-30T03:54:45.677Z,97147.75
2023-03-30T03:57:13.245Z,97152.13
2023-03-30T03:59:41.665Z,97137.47
2023-03-30T04:02:09.255Z,97130.41
2023-03-30T04:04:37.910Z,97127.72
2023-03-30T04:07:05.649Z,97116.53
2023-03-30T04:09:33.285Z,97124.38
2023-03-30T04:12:31.082Z,97126.66
2023-03-30T04:15:12.906Z,97118.81
2023-03-30T04:17:50.016Z,97107.03
2023-03-30T04:20:29.973Z,97091.72
2023-03-30T04:23:09.676Z,97079.09
2023-03-30T04:25:55.524Z,97079.34
2023-03-30T04:29:00.202Z,97066.72
2023-03-30T04:31:47.003Z,97064.06
2023-03-30T04:34:35.905Z,97059.34
2023-03-30T04:37:03.840Z,97056.84
2023-03-30T04:39:43.997Z,97057.69
2023-03-30T04:42:37.556Z,97048.16
2023-03-30T04:45:40.504Z,97045.69
2023-03-30T04:48:26.328Z,97039.91
2023-03-30T04:51:07.513Z,97038.09
2023-03-30T04:53:57.588Z,97030.63
2023-03-30T04:56:56.205Z,97026.53
2023-03-30T04:59:23.713Z,97025.06
2023-03-30T05:02:03.938Z,97027.75
2023-03-30T05:04:37.726Z,97041.59
2023-03-30T05:07:19.715Z,97040.78
2023-03-30T05:10:07.866Z,97025.88
2023-03-30T05:12:56.828Z,97013.31
2023-03-30T05:15:42.839Z,97006.47
2023-03-30T05:18:36.505Z,97005.03
2023-03-30T05:21:17.631Z,97004.19
2023-03-30T05:24:00.017Z,97011.63
2023-03-30T05:26:49.025Z,97002.94
2023-03-30T05:29:30.577Z,96996.50
2023-03-30T05:31:58.050Z,96994.63
2023-03-30T05:34:54.465Z,96990.28
2023-03-30T05:37:39.801Z,96990.41
2023-03-30T05:40:33.292Z,96983.03
2023-03-30T05:43:07.410Z,96996.19
2023-03-30T05:45:51.531Z,97005.94
2023-03-30T05:48:44.513Z,97024.94
2023-03-30T05:51:30.005Z,97047.09
2023-03-30T05:54:13.373Z,97058.91
2023-03-30T05:56:51.867Z,97091.13
2023-03-30T05:59:27.344Z,97105.25
2023-03-30T06:02:17.822Z,97125.84
2023-03-30T06:04:46.672Z,97132.69
2023-03-30T06:07:14.724Z,97138.22
2023-03-30T06:09:43.635Z,97148.63
2023-03-30T06:12:22.728Z,97151.91
2023-03-30T06:14:50.579Z,97158.91
2023-03-30T06:17:30.037Z,97163.88
2023-03-30T06:19:57.963Z,97179.41
2023-03-30T06:22:25.503Z,97169.50
2023-03-30T06:25:10.932Z,97180.28
2023-03-30T06:27:38.459Z,97186.06
2023-03-30T06:30:09.490Z,97182.09
2023-03-30T06:32:39.329Z,97194.09
2023-03-30T06:35:23.775Z,97206.72
2023-03-30T06:37:52.671Z,97196.38
2023-03-30T06:40:20.823Z,97213.53
2023-03-30T06:42:50.633Z,97220.56
2023-03-30T06:45:27.799Z,97211.09
2023-03-30T06:47:56.297Z,97208.63
2023-03-30T06:50:24.165Z,97220.78
2023-03-30T06:53:11.912Z,97229.25
2023-03-30T06:55:43.220Z,97254.44
2023-03-30T06:58:16.328Z,97263.09
2023-03-30T07:00:44.004Z,97261.00
2023-03-30T07:03:29.927Z,97272.97
2023-03-30T07:06:10.975Z,97272.72
2023-03-30T07:08:40.293Z,97248.59
2023-03-30T07:11:10.357Z,97251.44
2023-03-30T07:13:40.697Z,97259.44
2023-03-30T07:16:09.211Z,97267.22
2023-03-30T07:18:36.768Z,97260.69
2023-03-30T07:21:06.055Z,97286.06
2023-03-30T07:23:39.063Z,97294.25
2023-03-30T07:26:06.959Z,97295.34
2023-03-30T07:28:56.670Z,97276.69
2023-03-30T07:31:25.133Z,97244.16
2023-03-30T07:33:53.531Z,97248.31
2023-03-30T07:36:25.423Z,97249.75
2023-03-30T07:38:53.873Z,97251.63
2023-03-30T07:41:21.448Z,97249.19
2023-03-30T07:43:53.849Z,97223.44
2023-03-30T07:46:21.737Z,97230.06
2023-03-30T07:48:53.569Z,97235.03
2023-03-30T07:51:21.374Z,97255.88
2023-03-30T07:54:02.827Z,97266.22
2023-03-30T07:56:44.606Z,97277.38
2023-03-30T07:59:13.568Z,97289.53
2023-03-30T08:01:44.888Z,97307.72
2023-03-30T08:04:19.660Z,97317.59
2023-03-30T08:06:47.497Z,97331.34
2023-03-30T08:09:16.380Z,97336.66
2023-03-30T08:11:44.034Z,97326.47
2023-03-30T08:14:11.891Z,97329.56
2023-03-30T08:16:39.453Z,97330.03
2023-03-30T08:19:07.081Z,97327.88
2023-03-30T08:21:34.779Z,97315.13
2023-03-30T08:24:02.380Z,97322.34
2023-03-30T08:26:30.879Z,97326.13
2023-03-30T08:28:58.430Z,97319.13
2023-03-30T08:31:26.203Z,97252.28
2023-03-30T08:33:53.896Z,97252.31
2023-03-30T08:36:21.510Z,97237.25
2023-03-30T08:38:49.099Z,97213.53
2023-03-30T08:41:29.232Z,97211.25
2023-03-30T08:44:05.905Z,97238.31
2023-03-30T08:46:33.911Z,97233.81
2023-03-30T08:49:11.650Z,97229.25
2023-03-30T08:51:39.496Z,97223.69
2023-03-30T08:54:14.368Z,97225.75
2023-03-30T08:57:12.502Z,97220.81
2023-03-30T08:59:58.291Z,97203.66
2023-03-30T09:02:40.328Z,97217.94
2023-03-30T09:05:21.990Z,97213.38
2023-03-30T09:08:13.278Z,97225.13
2023-03-30T09:10:48.794Z,97223.09
2023-03-30T09:13:20.672Z,97237.53
2023-03-30T09:16:09.408Z,97249.09
2023-03-30T09:18:39.556Z,97240.00
2023-03-30T09:21:12.607Z,97238.56
2023-03-30T09:23:40.641Z,97241.44
2023-03-30T09:26:11.464Z,97231.53
2023-03-30T09:28:48.266Z,97248.03
2023-03-30T09:31:32.765Z,97253.00
2023-03-30T09:34:08.764Z,97258.59
2023-03-30T09:37:02.432Z,97266.22
2023-03-30T09:39:33.911Z,97276.34
2023-03-30T09:42:16.337Z,97280.28
2023-03-30T09:45:22.505Z,97285.88
2023-03-30T09:47:50.151Z,97287.94
2023-03-30T09:50:24.160Z,97286.28
2023-03-30T09:56:58.489Z,97301.81
2023-03-30T09:59:35.978Z,97309.03
2023-03-30T10:02:31.354Z,97309.44
2023-03-30T10:05:02.615Z,97298.06
2023-03-30T10:07:36.467Z,97290.44
2023-03-30T10:10:20.253Z,97294.16
2023-03-30T10:12:54.049Z,97285.88
2023-03-30T10:15:24.405Z,97274.75
2023-03-30T10:17:56.153Z,97259.22
2023-03-30T10:20:27.302Z,97248.69
2023-03-30T10:23:03.032Z,97250.94
2023-03-30T10:25:33.648Z,97241.44
2023-03-30T10:28:04.793Z,97246.38
2023-03-30T10:30:33.422Z,97252.13
2023-03-30T10:33:02.978Z,97246.16
2023-03-30T10:35:37.789Z,97241.16
2023-03-30T10:38:07.786Z,97236.78
2023-03-30T10:40:40.736Z,97233.13
2023-03-30T10:43:25.214Z,97233.03
2023-03-30T10:46:09.088Z,97229.47
2023-03-30T10:49:13.153Z,97246.28
2023-03-30T10:52:15.610Z,97229.34
2023-03-30T10:55:17.740Z,97212.53
2023-03-30T10:58:21.032Z,97234.09
2023-03-30T11:01:03.700Z,97223.50
2023-03-30T11:03:33.059Z,97234.38
2023-03-30T11:06:14.013Z,97232.13
2023-03-30T11:08:47.266Z,97249.69
2023-03-30T11:11:29.641Z,97247.16
2023-03-30T11:14:02.871Z,97248.28
2023-03-30T11:16:53.811Z,97236.63
2023-03-30T11:19:38.951Z,97238.88
2023-03-30T11:22:36.212Z,97237.50
2023-03-30T11:25:26.761Z,97249.09
2023-03-30T11:28:04.747Z,97231.06
2023-03-30T11:30:36.182Z,97241.66
2023-03-30T11:33:26.966Z,97238.09
2023-03-30T11:36:03.876Z,97249.88
2023-03-30T11:38:49.912Z,97268.50
2023-03-30T11:41:47.224Z,97263.56
2023-03-30T11:44:14.691Z,97252.56
2023-03-30T11:47:01.219Z,97260.94
2023-03-30T11:50:02.903Z,97261.53
2023-03-30T11:53:02.090Z,97257.53
2023-03-30T11:55:59.864Z,97254.81
2023-03-30T11:58:37.187Z,97264.09
2023-03-30T12:01:23.351Z,97255.63
2023-03-30T12:04:15.184Z,97256.44
2023-03-30T12:06:53.051Z,97260.75
2023-03-30T12:09:34.871Z,97267.44
2023-03-30T12:12:15.584Z,97248.72
2023-03-30T12:15:26.530Z,97249.56
2023-03-30T12:18:09.030Z,97244.91
2023-03-30T12:21:16.985Z,97251.75
2023-03-30T12:24:01.269Z,97235.00
2023-03-30T12:26:39.619Z,97228.63
2023-03-30T12:29:48.124Z,97209.03
2023-03-30T12:32:18.852Z,97214.75
2023-03-30T12:34:46.463Z,97225.53
2023-03-30T12:37:28.484Z,97213.72
2023-03-30T12:40:18.949Z,97206.81
2023-03-30T12:43:08.582Z,97203.44
2023-03-30T12:45:47.805Z,97208.75
2023-03-30T12:48:44.431Z,97196.72
2023-03-30T12:51:56.963Z,97190.56
2023-03-30T12:54:38.908Z,97186.53
2023-03-30T12:57:53.842Z,97188.09
2023-03-30T13:00:36.211Z,97194.78
2023-03-30T13:03:27.891Z,97188.25
2023-03-30T13:05:58.079Z,97178.06
2023-03-30T13:08:40.719Z,97172.41
2023-03-30T13:11:17.318Z,97188.41
2023-03-30T13:13:53.704Z,97177.94
2023-03-30T13:16:47.675Z,97172.25
2023-03-30T13:19:31.012Z,97193.13
2023-03-30T13:22:26.763Z,97147.16
2023-03-30T13:25:17.684Z,97151.84
2023-03-30T13:27:45.273Z,97151.41
2023-03-30T13:30:15.397Z,97165.50
2023-03-30T13:33:12.373Z,97172.69
2023-03-30T13:36:06.602Z,97156.88
2023-03-30T13:39:39.820Z,97164.97
2023-03-30T13:42:38.917Z,97164.53
2023-03-30T13:45:44.342Z,97170.72
2023-03-30T13:48:52.235Z,97161.19
2023-03-30T13:51:27.418Z,97176.66
2023-03-30T13:54:11.797Z,97160.16
2023-03-30T13:56:44.151Z,97148.28
2023-03-30T13:59:19.475Z,97165.38
2023-03-30T14:01:56.477Z,97168.91
2023-03-30T14:04:33.775Z,97157.19
2023-03-30T14:07:18.876Z,97149.25
2023-03-30T14:10:14.062Z,97144.50
2023-03-30T14:12:42.776Z,97144.03
2023-03-30T14:15:38.577Z,97154.22
2023-03-30T14:18:10.993Z,97144.88
2023-03-30T14:20:59.169Z,97181.00
2023-03-30T14:23:51.309Z,97168.00
2023-03-30T14:26:26.614Z,97172.47
2023-03-30T14:28:57.515Z,97171.69
2023-03-30T14:31:27.280Z,97191.69
2023-03-30T14:33:55.115Z,97182.56
2023-03-30T14:36:23.005Z,97194.06
2023-03-30T14:38:53.679Z,97201.81
2023-03-30T14:41:29.312Z,97204.59
2023-03-30T14:44:03.694Z,97223.09
2023-03-30T14:46:48.292Z,97202.22
2023-03-30T14:49:28.979Z,97206.34
2023-03-30T14:52:22.414Z,97185.44
2023-03-30T14:55:05.879Z,97184.94
2023-03-30T14:57:39.382Z,97179.16
2023-03-30T15:00:22.909Z,97166.75
2023-03-30T15:02:57.827Z,97179.38
2023-03-30T15:05:33.910Z,97174.41
2023-03-30T15:08:03.771Z,97199.44
2023-03-30T15:10:45.278Z,97178.97
2023-03-30T15:13:36.607Z,97203.25
2023-03-30T15:16:06.080Z,97196.22
2023-03-30T15:18:36.352Z,97177.53
2023-03-30T15:21:04.321Z,97193.81
2023-03-30T15:23:39.096Z,97189.00
2023-03-30T15:26:07.686Z,97189.00
2023-03-30T15:28:57.627Z,97200.19
2023-03-30T15:31:28.216Z,97200.09
2023-03-30T15:34:00.848Z,97203.44
2023-03-30T15:36:34.036Z,97189.81
2023-03-30T15:39:01.650Z,97193.72
2023-03-30T15:41:47.070Z,97226.47
2023-03-30T15:44:22.186Z,97202.00
2023-03-30T15:46:54.026Z,97208.88
2023-03-30T15:49:29.548Z,97216.59
2023-03-30T15:52:01.796Z,97186.53
2023-03-30T15:54:48.450Z,97201.91
2023-03-30T15:57:28.383Z,97197.09
2023-03-30T16:00:20.486Z,97187.13
2023-03-30T16:03:12.584Z,97187.41
2023-03-30T16:05:41.282Z,97186.06
2023-03-30T16:08:08.930Z,97187.78
2023-03-30T16:10:37.822Z,97189.22
2023-03-30T16:13:06.924Z,97202.72
2023-03-30T16:15:34.555Z,97190.75
2023-03-30T16:18:02.162Z,97191.34
2023-03-30T16:20:32.140Z,97183.72
2023-03-30T16:22:59.635Z,97184.09
2023-03-30T16:25:34.468Z,97185.38
2023-03-30T16:28:05.735Z,97169.75
2023-03-30T16:30:38.409Z,97183.56
2023-03-30T16:33:06.077Z,97183.38
2023-03-30T16:35:33.665Z,97179.94
2023-03-30T16:38:01.169Z,97189.44
2023-03-30T16:40:42.831Z,97185.34
2023-03-30T16:43:11.227Z,97188.41
2023-03-30T16:45:38.916Z,97191.81
2023-03-30T16:48:06.616Z,97185.16
2023-03-30T16:50:43.790Z,97183.53
2023-03-30T16:53:12.483Z,97184.13
2023-03-30T16:55:41.017Z,97187.63
2023-03-30T16:58:13.634Z,97188.34
2023-03-30T17:00:45.902Z,97202.78
2023-03-30T17:03:14.428Z,97197.66
2023-03-30T17:05:45.557Z,97196.72
2023-03-30T17:08:28.435Z,97185.25
2023-03-30T17:11:00.928Z,97193.31
2023-03-30T17:13:29.544Z,97192.94
2023-03-30T17:15:59.672Z,97198.31
2023-03-30T17:18:28.099Z,97201.25
2023-03-30T17:21:00.835Z,97202.72
2023-03-30T17:23:32.010Z,97205.09
2023-03-30T17:26:01.571Z,97200.09
2023-03-30T17:28:35.347Z,97207.00
2023-03-30T17:31:04.447Z,97200.66
2023-03-30T17:33:33.708Z,97211.22
2023-03-30T17:36:19.442Z,97210.84
2023-03-30T17:38:48.371Z,97212.88
2023-03-30T17:41:19.245Z,97223.19
2023-03-30T17:43:48.094Z,97227.13
2023-03-30T17:46:18.271Z,97233.13
2023-03-30T17:48:46.012Z,97219.91
2023-03-30T17:51:13.532Z,97226.13
2023-03-30T17:53:41.066Z,97224.88
2023-03-30T17:56:13.060Z,97228.38
2023-03-30T17:58:40.757Z,97228.38
2023-03-30T18:01:12.188Z,97230.28
2023-03-30T18:03:40.226Z,97240.81
2023-03-30T18:06:08.007Z,97238.34
2023-03-30T18:08:35.958Z,97235.66
2023-03-30T18:11:04.960Z,97243.50
2023-03-30T18:13:32.677Z,97244.97
2023-03-30T18:16:01.110Z,97256.75
2023-03-30T18:18:30.834Z,97250.94
2023-03-30T18:21:05.095Z,97253.03
2023-03-30T18:23:34.707Z,97248.47
2023-03-30T18:26:08.596Z,97245.56
2023-03-30T18:28:43.282Z,97238.56
2023-03-30T18:31:11.063Z,97236.50
2023-03-30T18:33:39.342Z,97229.06
2023-03-30T18:36:14.563Z,97230.53
2023-03-30T18:38:42.565Z,97238.56
2023-03-30T18:41:13.476Z,97241.03
2023-03-30T18:43:40.991Z,97243.53
2023-03-30T18:46:12.413Z,97252.19
2023-03-30T18:48:39.956Z,97253.81
2023-03-30T18:51:10.440Z,97254.25
2023-03-30T18:53:38.013Z,97254.84
2023-03-30T18:56:06.738Z,97257.34
2023-03-30T18:58:41.343Z,97258.56
2023-03-30T19:01:09.542Z,97261.03
2023-03-30T19:03:37.102Z,97269.44
2023-03-30T19:06:04.936Z,97263.88
2023-03-30T19:08:32.889Z,97271.50
2023-03-30T19:11:00.408Z,97274.81
2023-03-30T19:13:27.941Z,97274.25
2023-03-30T19:15:55.626Z,97276.31
2023-03-30T19:18:23.140Z,97279.00
2023-03-30T19:20:51.859Z,97270.34
2023-03-30T19:23:21.560Z,97270.94
2023-03-30T19:25:49.362Z,97262.25
2023-03-30T19:28:17.420Z,97266.41
2023-03-30T19:30:45.272Z,97259.38
2023-03-30T19:33:16.511Z,97261.03
2023-03-30T19:35:46.131Z,97258.31
2023-03-30T19:38:15.314Z,97261.22
2023-03-30T19:40:43.200Z,97263.69
2023-03-30T19:43:11.329Z,97255.88
2023-03-30T19:45:39.562Z,97249.69
2023-03-30T19:48:07.777Z,97261.63
2023-03-30T19:50:35.498Z,97262.03
2023-03-30T19:53:02.977Z,97264.91
2023-03-30T19:55:30.552Z,97259.72
2023-03-30T19:57:58.242Z,97262.84
2023-03-30T20:00:25.968Z,97259.53
2023-03-30T20:02:55.202Z,97257.03
2023-03-30T20:05:24.178Z,97254.75
2023-03-30T20:07:51.839Z,97257.22
2023-03-30T20:10:24.460Z,97253.50
2023-03-30T20:12:53.048Z,97249.75
2023-03-30T20:15:23.707Z,97249.75
2023-03-30T20:17:56.156Z,97241.09
2023-03-30T20:20:25.352Z,97228.28
2023-03-30T20:22:56.032Z,97227.88
2023-03-30T20:25:24.459Z,97238.41
2023-03-30T20:27:53.040Z,97224.56
2023-03-30T20:30:21.370Z,97224.38
2023-03-30T20:33:06.285Z,97220.22
2023-03-30T20:35:37.089Z,97220.44
2023-03-30T20:38:08.322Z,97218.78
2023-03-30T20:40:36.073Z,97214.84
2023-03-30T20:43:03.750Z,97213.22
2023-03-30T20:45:31.637Z,97212.41
2023-03-30T20:48:01.421Z,97217.78
2023-03-30T20:50:28.920Z,97213.41
2023-03-30T20:52:56.449Z,97215.09
2023-03-30T20:55:23.942Z,97211.16
2023-03-30T20:57:51.452Z,97209.06
2023-03-30T21:00:19.771Z,97210.31
2023-03-30T21:02:47.262Z,97205.75
2023-03-30T21:05:14.876Z,97206.81
2023-03-30T21:07:46.755Z,97203.06
2023-03-30T21:10:16.207Z,97198.91
2023-03-30T21:12:43.712Z,97208.19
2023-03-30T21:15:11.501Z,97201.19
2023-03-30T21:17:39.104Z,97199.09
2023-03-30T21:20:10.699Z,97198.03
2023-03-30T21:22:38.262Z,97196.41
2023-03-30T21:25:06.269Z,97196.97
2023-03-30T21:27:33.791Z,97193.28
2023-03-30T21:30:01.312Z,97184.44
2023-03-30T21:32:30.827Z,97167.31
2023-03-30T21:34:59.089Z,97184.19
2023-03-30T21:37:26.575Z,97173.47
2023-03-30T21:39:54.054Z,97181.94
2023-03-30T21:42:21.584Z,97169.97
2023-03-30T21:44:49.060Z,97164.19
2023-03-30T21:47:16.644Z,97156.34
2023-03-30T21:49:44.176Z,97165.06
2023-03-30T21:52:11.794Z,97164.66
2023-03-30T21:54:39.403Z,97166.72
2023-03-30T21:57:07.011Z,97149.22
2023-03-30T21:59:34.708Z,97144.47
2023-03-30T22:02:02.274Z,97145.09
2023-03-30T22:04:29.775Z,97145.28
2023-03-30T22:06:57.258Z,97146.16
2023-03-30T22:09:24.813Z,97139.72
2023-03-30T22:11:54.042Z,97135.41
2023-03-30T22:14:22.364Z,97144.72
2023-03-30T22:16:49.909Z,97139.34
2023-03-30T22:19:18.915Z,97134.19
2023-03-30T22:21:47.917Z,97138.91
2023-03-30T22:24:18.061Z,97137.09
2023-03-30T22:26:46.131Z,97137.91
2023-03-30T22:29:13.682Z,97131.09
2023-03-30T22:31:41.516Z,97124.91
2023-03-30T22:34:09.129Z,97121.81
2023-03-30T22:36:36.658Z,97111.91
2023-03-30T22:39:04.401Z,97107.38
2023-03-30T22:41:31.926Z,97102.63
2023-03-30T22:43:59.492Z,97094.81
2023-03-30T22:46:27.927Z,97101.00
2023-03-30T22:48:56.179Z,97094.81
2023-03-30T22:51:28.182Z,97094.38
2023-03-30T22:54:00.803Z,97084.28
2023-03-30T22:56:29.993Z,97080.97
2023-03-30T22:59:00.708Z,97082.81
2023-03-30T23:01:31.992Z,97082.41
2023-03-30T23:04:00.679Z,97077.25
2023-03-30T23:06:28.291Z,97077.06
2023-03-30T23:08:55.867Z,97072.94
2023-03-30T23:11:23.603Z,97064.06
2023-03-30T23:13:52.128Z,97075.63
2023-03-30T23:16:19.723Z,97064.88
2023-03-30T23:18:47.858Z,97062.00
2023-03-30T23:21:15.376Z,97065.31
2023-03-30T23:23:43.511Z,97058.28
2023-03-30T23:26:11.576Z,97056.03
2023-03-30T23:28:41.749Z,97053.13
2023-03-30T23:31:12.551Z,97048.19
2023-03-30T23:33:41.516Z,97042.00
2023-03-30T23:36:13.685Z,97043.44
2023-03-30T23:38:42.914Z,97029.00
2023-03-30T23:41:14.313Z,97013.97
2023-03-30T23:43:41.941Z,97009.81
2023-03-30T23:46:10.728Z,97007.34
2023-03-30T23:48:39.399Z,97006.94
2023-03-30T23:51:07.058Z,97005.50
2023-03-30T23:53:34.821Z,97004.88
2023-03-30T23:56:06.279Z,97000.53
2023-03-30T23:58:34.127Z,96998.47
